sensor_id;sensor_type;location;lat;lon;timestamp;pressure;altitude;pressure_sealevel;temperature;humidity
39793;BME280;26080;42.264;24.536;2023-07-20T00:01:07;98805.75;;;25.79;73.37
39793;BME280;26080;42.264;24.536;2023-07-20T00:03:32;98803.41;;;25.76;75.44
39793;BME280;26080;42.264;24.536;2023-07-20T00:05:58;98793.72;;;25.75;74.40
39793;BME280;26080;42.264;24.536;2023-07-20T00:08:24;98775.31;;;25.86;73.40
39793;BME280;26080;42.264;24.536;2023-07-20T00:10:49;98746.22;;;25.98;71.18
39793;BME280;26080;42.264;24.536;2023-07-20T00:13:15;98753.44;;;26.42;69.03
39793;BME280;26080;42.264;24.536;2023-07-20T00:15:41;98742.97;;;26.62;67.92
39793;BME280;26080;42.264;24.536;2023-07-20T00:18:07;98729.72;;;26.60;68.56
39793;BME280;26080;42.264;24.536;2023-07-20T00:20:32;98733.06;;;26.62;69.59
39793;BME280;26080;42.264;24.536;2023-07-20T00:22:58;98708.59;;;26.57;69.71
39793;BME280;26080;42.264;24.536;2023-07-20T00:25:24;98735.34;;;26.65;69.85
39793;BME280;26080;42.264;24.536;2023-07-20T00:27:50;98701.88;;;26.46;69.54
39793;BME280;26080;42.264;24.536;2023-07-20T00:30:16;98723.34;;;26.61;69.03
39793;BME280;26080;42.264;24.536;2023-07-20T00:32:42;98736.84;;;26.53;72.21
39793;BME280;26080;42.264;24.536;2023-07-20T00:35:08;98736.06;;;26.38;71.94
39793;BME280;26080;42.264;24.536;2023-07-20T00:37:33;98742.22;;;26.23;76.92
39793;BME280;26080;42.264;24.536;2023-07-20T00:39:59;98746.84;;;26.00;81.60
39793;BME280;26080;42.264;24.536;2023-07-20T00:42:24;98752.75;;;25.81;86.83
39793;BME280;26080;42.264;24.536;2023-07-20T00:44:50;98753.31;;;25.53;90.74
39793;BME280;26080;42.264;24.536;2023-07-20T00:47:15;98752.50;;;25.30;92.12
39793;BME280;26080;42.264;24.536;2023-07-20T00:49:40;98749.03;;;25.21;92.18
39793;BME280;26080;42.264;24.536;2023-07-20T00:52:07;98748.81;;;25.08;92.74
39793;BME280;26080;42.264;24.536;2023-07-20T00:54:33;98751.06;;;24.96;93.49
39793;BME280;26080;42.264;24.536;2023-07-20T00:57:00;98741.09;;;24.82;95.94
39793;BME280;26080;42.264;24.536;2023-07-20T00:59:26;98725.44;;;24.71;97.31
39793;BME280;26080;42.264;24.536;2023-07-20T01:01:52;98700.44;;;24.56;97.19
39793;BME280;26080;42.264;24.536;2023-07-20T01:04:18;98717.13;;;24.58;96.80
39793;BME280;26080;42.264;24.536;2023-07-20T01:09:16;98686.50;;;24.21;97.12
39793;BME280;26080;42.264;24.536;2023-07-20T01:14:23;98731.16;;;24.20;98.37
39793;BME280;26080;42.264;24.536;2023-07-20T01:16:50;98735.84;;;24.18;98.52
39793;BME280;26080;42.264;24.536;2023-07-20T01:19:17;98748.09;;;24.13;99.47
39793;BME280;26080;42.264;24.536;2023-07-20T01:24:45;98735.38;;;24.15;99.54
39793;BME280;26080;42.264;24.536;2023-07-20T01:32:38;98718.38;;;24.00;100.00
39793;BME280;26080;42.264;24.536;2023-07-20T01:35:06;98720.53;;;23.96;100.00
39793;BME280;26080;42.264;24.536;2023-07-20T01:37:34;98712.53;;;23.88;100.00
39793;BME280;26080;42.264;24.536;2023-07-20T01:40:00;98706.19;;;23.89;100.00
39793;BME280;26080;42.264;24.536;2023-07-20T01:42:26;98703.88;;;23.86;100.00
39793;BME280;26080;42.264;24.536;2023-07-20T01:44:52;98699.00;;;23.81;100.00
39793;BME280;26080;42.264;24.536;2023-07-20T01:47:18;98706.03;;;23.82;100.00
39793;BME280;26080;42.264;24.536;2023-07-20T01:49:44;98712.91;;;23.85;99.66
39793;BME280;26080;42.264;24.536;2023-07-20T01:52:10;98713.03;;;23.91;97.79
39793;BME280;26080;42.264;24.536;2023-07-20T01:54:35;98716.53;;;24.00;100.00
39793;BME280;26080;42.264;24.536;2023-07-20T01:57:00;98722.06;;;23.82;100.00
39793;BME280;26080;42.264;24.536;2023-07-20T01:59:26;98714.09;;;23.66;100.00
39793;BME280;26080;42.264;24.536;2023-07-20T02:01:52;98714.78;;;23.60;100.00
39793;BME280;26080;42.264;24.536;2023-07-20T02:04:17;98714.75;;;23.52;100.00
39793;BME280;26080;42.264;24.536;2023-07-20T02:06:43;98712.06;;;23.52;100.00
39793;BME280;26080;42.264;24.536;2023-07-20T02:09:08;98721.44;;;23.64;100.00
39793;BME280;26080;42.264;24.536;2023-07-20T02:11:34;98707.03;;;23.57;100.00
39793;BME280;26080;42.264;24.536;2023-07-20T02:13:59;98713.25;;;23.66;99.37
39793;BME280;26080;42.264;24.536;2023-07-20T02:16:24;98716.78;;;23.58;98.43
39793;BME280;26080;42.264;24.536;2023-07-20T02:18:50;98716.59;;;23.51;98.51
39793;BME280;26080;42.264;24.536;2023-07-20T02:21:15;98716.09;;;23.48;99.00
39793;BME280;26080;42.264;24.536;2023-07-20T02:23:41;98707.41;;;23.46;97.81
39793;BME280;26080;42.264;24.536;2023-07-20T02:26:06;98718.06;;;23.70;96.59
39793;BME280;26080;42.264;24.536;2023-07-20T02:28:32;98724.78;;;23.74;96.89
39793;BME280;26080;42.264;24.536;2023-07-20T02:30:57;98716.75;;;23.74;96.46
39793;BME280;26080;42.264;24.536;2023-07-20T02:33:23;98719.13;;;23.61;97.53
39793;BME280;26080;42.264;24.536;2023-07-20T02:35:48;98716.78;;;23.58;97.72
39793;BME280;26080;42.264;24.536;2023-07-20T02:38:14;98718.13;;;23.62;97.60
39793;BME280;26080;42.264;24.536;2023-07-20T02:40:39;98741.78;;;23.57;99.08
39793;BME280;26080;42.264;24.536;2023-07-20T02:43:05;98742.31;;;23.52;100.00
39793;BME280;26080;42.264;24.536;2023-07-20T02:45:30;98727.78;;;23.47;100.00
39793;BME280;26080;42.264;24.536;2023-07-20T02:47:56;98718.09;;;23.46;100.00
39793;BME280;26080;42.264;24.536;2023-07-20T02:50:22;98715.59;;;23.36;100.00
39793;BME280;26080;42.264;24.536;2023-07-20T02:52:47;98715.25;;;23.39;100.00
39793;BME280;26080;42.264;24.536;2023-07-20T02:55:13;98713.91;;;23.27;100.00
39793;BME280;26080;42.264;24.536;2023-07-20T02:57:38;98698.38;;;23.14;100.00
39793;BME280;26080;42.264;24.536;2023-07-20T03:00:04;98717.78;;;23.32;100.00
39793;BME280;26080;42.264;24.536;2023-07-20T03:02:31;98708.75;;;23.17;100.00
39793;BME280;26080;42.264;24.536;2023-07-20T03:04:57;98729.13;;;23.10;100.00
39793;BME280;26080;42.264;24.536;2023-07-20T03:07:27;98729.13;;;23.18;100.00
39793;BME280;26080;42.264;24.536;2023-07-20T03:09:54;98729.13;;;23.26;100.00
39793;BME280;26080;42.264;24.536;2023-07-20T03:12:20;98730.44;;;23.14;100.00
39793;BME280;26080;42.264;24.536;2023-07-20T03:14:46;98724.94;;;23.24;100.00
39793;BME280;26080;42.264;24.536;2023-07-20T03:17:11;98723.59;;;23.28;100.00
39793;BME280;26080;42.264;24.536;2023-07-20T03:19:37;98733.47;;;23.35;100.00
39793;BME280;26080;42.264;24.536;2023-07-20T03:22:03;98732.28;;;23.38;100.00
39793;BME280;26080;42.264;24.536;2023-07-20T03:24:30;98722.44;;;23.47;100.00
39793;BME280;26080;42.264;24.536;2023-07-20T03:26:56;98722.41;;;23.55;100.00
39793;BME280;26080;42.264;24.536;2023-07-20T03:29:21;98717.63;;;23.58;100.00
39793;BME280;26080;42.264;24.536;2023-07-20T03:31:46;98710.59;;;23.57;100.00
39793;BME280;26080;42.264;24.536;2023-07-20T03:34:13;98698.38;;;23.55;100.00
39793;BME280;26080;42.264;24.536;2023-07-20T03:36:38;98706.22;;;23.73;100.00
39793;BME280;26080;42.264;24.536;2023-07-20T03:39:04;98684.13;;;23.87;100.00
39793;BME280;26080;42.264;24.536;2023-07-20T03:41:29;98712.91;;;24.24;100.00
39793;BME280;26080;42.264;24.536;2023-07-20T03:43:55;98712.25;;;24.30;100.00
39793;BME280;26080;42.264;24.536;2023-07-20T03:46:20;98700.84;;;24.36;100.00
39793;BME280;26080;42.264;24.536;2023-07-20T03:48:46;98710.78;;;24.59;99.21
39793;BME280;26080;42.264;24.536;2023-07-20T03:51:11;98715.84;;;24.76;97.94
39793;BME280;26080;42.264;24.536;2023-07-20T03:53:36;98721.91;;;25.01;96.30
39793;BME280;26080;42.264;24.536;2023-07-20T03:56:02;98723.16;;;25.14;96.31
39793;BME280;26080;42.264;24.536;2023-07-20T03:58:27;98723.31;;;25.35;96.67
39793;BME280;26080;42.264;24.536;2023-07-20T04:00:54;98716.88;;;25.96;92.47
39793;BME280;26080;42.264;24.536;2023-07-20T04:03:20;98718.81;;;26.47;88.44
39793;BME280;26080;42.264;24.536;2023-07-20T04:05:46;98722.00;;;27.08;86.40
39793;BME280;26080;42.264;24.536;2023-07-20T04:08:11;98727.47;;;27.64;80.37
39793;BME280;26080;42.264;24.536;2023-07-20T04:10:38;98732.50;;;28.01;78.16
39793;BME280;26080;42.264;24.536;2023-07-20T04:13:04;98732.50;;;28.36;77.75
39793;BME280;26080;42.264;24.536;2023-07-20T04:15:29;98740.81;;;28.41;76.58
39793;BME280;26080;42.264;24.536;2023-07-20T04:17:56;98735.94;;;28.65;74.92
39793;BME280;26080;42.264;24.536;2023-07-20T04:20:22;98745.50;;;28.74;75.53
39793;BME280;26080;42.264;24.536;2023-07-20T04:22:51;98742.84;;;28.80;74.34
39793;BME280;26080;42.264;24.536;2023-07-20T04:25:17;98746.84;;;29.04;73.75
39793;BME280;26080;42.264;24.536;2023-07-20T04:27:43;98725.09;;;29.45;70.62
39793;BME280;26080;42.264;24.536;2023-07-20T04:30:09;98729.94;;;29.76;66.86
39793;BME280;26080;42.264;24.536;2023-07-20T04:32:35;98712.03;;;30.08;68.11
39793;BME280;26080;42.264;24.536;2023-07-20T04:35:01;98704.88;;;30.34;65.40
39793;BME280;26080;42.264;24.536;2023-07-20T04:37:27;98719.78;;;30.50;64.17
39793;BME280;26080;42.264;24.536;2023-07-20T04:39:52;98705.00;;;30.52;63.24
39793;BME280;26080;42.264;24.536;2023-07-20T04:42:18;98742.72;;;31.17;62.69
39793;BME280;26080;42.264;24.536;2023-07-20T04:44:43;98748.69;;;31.57;60.88
39793;BME280;26080;42.264;24.536;2023-07-20T04:47:08;98748.53;;;31.77;57.77
39793;BME280;26080;42.264;24.536;2023-07-20T04:49:34;98733.84;;;31.91;55.58
39793;BME280;26080;42.264;24.536;2023-07-20T04:51:59;98726.78;;;32.27;56.69
39793;BME280;26080;42.264;24.536;2023-07-20T04:54:25;98737.66;;;32.63;55.63
39793;BME280;26080;42.264;24.536;2023-07-20T04:56:52;98735.22;;;32.92;52.77
39793;BME280;26080;42.264;24.536;2023-07-20T04:59:18;98734.81;;;33.18;50.73
39793;BME280;26080;42.264;24.536;2023-07-20T05:01:43;98734.22;;;33.28;49.42
39793;BME280;26080;42.264;24.536;2023-07-20T05:04:09;98734.97;;;33.89;47.16
39793;BME280;26080;42.264;24.536;2023-07-20T05:06:34;98728.56;;;33.95;44.85
39793;BME280;26080;42.264;24.536;2023-07-20T05:08:59;98704.69;;;34.20;44.15
39793;BME280;26080;42.264;24.536;2023-07-20T05:11:25;98744.09;;;34.58;42.29
39793;BME280;26080;42.264;24.536;2023-07-20T05:13:50;98738.25;;;34.66;42.67
39793;BME280;26080;42.264;24.536;2023-07-20T05:16:16;98735.63;;;34.19;44.51
39793;BME280;26080;42.264;24.536;2023-07-20T05:18:42;98729.47;;;34.35;43.53
39793;BME280;26080;42.264;24.536;2023-07-20T05:21:07;98716.34;;;34.32;43.15
39793;BME280;26080;42.264;24.536;2023-07-20T05:23:33;98732.25;;;34.00;44.10
39793;BME280;26080;42.264;24.536;2023-07-20T05:25:59;98712.00;;;33.84;44.30
39793;BME280;26080;42.264;24.536;2023-07-20T05:28:28;98726.00;;;34.00;44.78
39793;BME280;26080;42.264;24.536;2023-07-20T05:30:53;98725.00;;;33.82;45.28
39793;BME280;26080;42.264;24.536;2023-07-20T05:33:21;98724.19;;;33.28;46.26
39793;BME280;26080;42.264;24.536;2023-07-20T05:35:48;98715.59;;;33.20;46.78
39793;BME280;26080;42.264;24.536;2023-07-20T05:38:13;98714.31;;;32.62;49.67
39793;BME280;26080;42.264;24.536;2023-07-20T05:40:42;98718.00;;;32.13;51.92
39793;BME280;26080;42.264;24.536;2023-07-20T05:43:10;98695.06;;;31.72;53.13
39793;BME280;26080;42.264;24.536;2023-07-20T05:45:36;98703.19;;;31.72;53.79
39793;BME280;26080;42.264;24.536;2023-07-20T05:48:01;98706.63;;;32.04;52.59
39793;BME280;26080;42.264;24.536;2023-07-20T05:50:26;98701.06;;;32.18;52.43
39793;BME280;26080;42.264;24.536;2023-07-20T05:52:53;98702.78;;;32.12;54.40
39793;BME280;26080;42.264;24.536;2023-07-20T05:55:18;98690.50;;;31.91;52.94
39793;BME280;26080;42.264;24.536;2023-07-20T05:57:44;98700.94;;;31.44;54.53
39793;BME280;26080;42.264;24.536;2023-07-20T06:00:10;98689.78;;;31.34;56.59
39793;BME280;26080;42.264;24.536;2023-07-20T06:02:40;98693.97;;;31.30;53.80
39793;BME280;26080;42.264;24.536;2023-07-20T06:05:07;98695.47;;;31.26;56.54
39793;BME280;26080;42.264;24.536;2023-07-20T06:07:39;98692.31;;;31.29;56.21
39793;BME280;26080;42.264;24.536;2023-07-20T06:10:07;98667.25;;;31.40;52.39
39793;BME280;26080;42.264;24.536;2023-07-20T06:12:33;98670.34;;;31.44;53.23
39793;BME280;26080;42.264;24.536;2023-07-20T06:15:03;98701.53;;;31.71;52.63
39793;BME280;26080;42.264;24.536;2023-07-20T06:17:29;98673.44;;;31.47;55.18
39793;BME280;26080;42.264;24.536;2023-07-20T06:19:55;98691.97;;;31.19;54.95
39793;BME280;26080;42.264;24.536;2023-07-20T06:22:21;98668.75;;;31.05;53.73
39793;BME280;26080;42.264;24.536;2023-07-20T06:24:46;98671.47;;;31.05;56.24
39793;BME280;26080;42.264;24.536;2023-07-20T06:27:12;98681.00;;;31.07;56.84
39793;BME280;26080;42.264;24.536;2023-07-20T06:29:38;98690.38;;;31.05;57.12
39793;BME280;26080;42.264;24.536;2023-07-20T06:32:05;98675.34;;;31.15;52.05
39793;BME280;26080;42.264;24.536;2023-07-20T06:34:30;98656.59;;;30.89;58.04
39793;BME280;26080;42.264;24.536;2023-07-20T06:36:56;98677.66;;;31.12;58.05
39793;BME280;26080;42.264;24.536;2023-07-20T06:39:22;98673.28;;;31.11;53.17
39793;BME280;26080;42.264;24.536;2023-07-20T06:41:48;98682.06;;;31.06;55.49
39793;BME280;26080;42.264;24.536;2023-07-20T06:44:22;98681.44;;;31.04;57.98
39793;BME280;26080;42.264;24.536;2023-07-20T06:46:51;98688.84;;;31.15;58.68
39793;BME280;26080;42.264;24.536;2023-07-20T06:49:26;98684.97;;;31.05;55.64
39793;BME280;26080;42.264;24.536;2023-07-20T06:51:55;98667.75;;;30.67;54.91
39793;BME280;26080;42.264;24.536;2023-07-20T06:54:20;98664.66;;;30.64;55.04
39793;BME280;26080;42.264;24.536;2023-07-20T06:56:46;98680.94;;;30.89;55.14
39793;BME280;26080;42.264;24.536;2023-07-20T06:59:19;98679.22;;;30.94;54.69
39793;BME280;26080;42.264;24.536;2023-07-20T07:01:46;98680.97;;;30.82;54.02
39793;BME280;26080;42.264;24.536;2023-07-20T07:04:11;98649.38;;;30.45;56.60
39793;BME280;26080;42.264;24.536;2023-07-20T07:06:37;98678.53;;;30.74;55.28
39793;BME280;26080;42.264;24.536;2023-07-20T07:09:03;98683.06;;;30.80;52.91
39793;BME280;26080;42.264;24.536;2023-07-20T07:11:28;98670.59;;;30.79;52.86
39793;BME280;26080;42.264;24.536;2023-07-20T07:13:57;98678.16;;;30.95;52.16
39793;BME280;26080;42.264;24.536;2023-07-20T07:16:22;98672.16;;;30.93;53.55
39793;BME280;26080;42.264;24.536;2023-07-20T07:18:54;98655.59;;;30.83;51.48
39793;BME280;26080;42.264;24.536;2023-07-20T07:21:19;98672.97;;;30.94;54.46
39793;BME280;26080;42.264;24.536;2023-07-20T07:23:45;98648.31;;;31.09;53.70
39793;BME280;26080;42.264;24.536;2023-07-20T07:26:12;98660.38;;;31.13;53.99
39793;BME280;26080;42.264;24.536;2023-07-20T07:28:38;98669.84;;;31.29;50.50
39793;BME280;26080;42.264;24.536;2023-07-20T07:31:06;98661.41;;;31.43;50.63
39793;BME280;26080;42.264;24.536;2023-07-20T07:33:32;98640.53;;;31.26;48.76
39793;BME280;26080;42.264;24.536;2023-07-20T07:35:58;98651.25;;;31.39;50.34
39793;BME280;26080;42.264;24.536;2023-07-20T07:38:26;98655.19;;;31.36;51.21
39793;BME280;26080;42.264;24.536;2023-07-20T07:40:52;98664.94;;;31.44;51.83
39793;BME280;26080;42.264;24.536;2023-07-20T07:43:17;98660.38;;;31.63;51.75
39793;BME280;26080;42.264;24.536;2023-07-20T07:45:42;98663.81;;;31.76;52.02
39793;BME280;26080;42.264;24.536;2023-07-20T07:48:08;98655.47;;;31.96;53.21
39793;BME280;26080;42.264;24.536;2023-07-20T07:50:39;98655.69;;;32.13;53.80
39793;BME280;26080;42.264;24.536;2023-07-20T07:53:08;98651.56;;;32.29;54.00
39793;BME280;26080;42.264;24.536;2023-07-20T07:55:35;98659.16;;;32.38;51.23
39793;BME280;26080;42.264;24.536;2023-07-20T07:58:00;98653.63;;;32.45;48.49
39793;BME280;26080;42.264;24.536;2023-07-20T08:00:26;98649.50;;;32.42;48.70
39793;BME280;26080;42.264;24.536;2023-07-20T08:02:52;98651.56;;;32.29;51.77
39793;BME280;26080;42.264;24.536;2023-07-20T08:05:20;98651.25;;;32.37;52.55
39793;BME280;26080;42.264;24.536;2023-07-20T08:07:46;98651.97;;;32.44;50.60
39793;BME280;26080;42.264;24.536;2023-07-20T08:10:12;98647.50;;;32.38;50.18
39793;BME280;26080;42.264;24.536;2023-07-20T08:12:37;98653.63;;;32.45;52.76
39793;BME280;26080;42.264;24.536;2023-07-20T08:15:03;98655.03;;;32.66;50.50
39793;BME280;26080;42.264;24.536;2023-07-20T08:17:29;98642.72;;;32.82;51.09
39793;BME280;26080;42.264;24.536;2023-07-20T08:19:55;98645.25;;;32.95;50.14
39793;BME280;26080;42.264;24.536;2023-07-20T08:22:20;98656.34;;;33.05;48.70
39793;BME280;26080;42.264;24.536;2023-07-20T08:24:46;98653.03;;;33.15;50.93
39793;BME280;26080;42.264;24.536;2023-07-20T08:27:12;98657.88;;;33.13;47.06
39793;BME280;26080;42.264;24.536;2023-07-20T08:29:38;98637.00;;;33.13;48.85
39793;BME280;26080;42.264;24.536;2023-07-20T08:32:04;98654.34;;;33.12;46.19
39793;BME280;26080;42.264;24.536;2023-07-20T08:34:31;98654.34;;;33.12;46.77
39793;BME280;26080;42.264;24.536;2023-07-20T08:36:57;98654.25;;;33.19;47.11
39793;BME280;26080;42.264;24.536;2023-07-20T08:39:23;98656.44;;;32.98;45.02
39793;BME280;26080;42.264;24.536;2023-07-20T08:41:50;98643.16;;;33.09;46.56
39793;BME280;26080;42.264;24.536;2023-07-20T08:44:17;98654.84;;;33.21;49.25
39793;BME280;26080;42.264;24.536;2023-07-20T08:46:43;98644.44;;;33.29;49.78
39793;BME280;26080;42.264;24.536;2023-07-20T08:49:13;98631.06;;;33.35;48.24
39793;BME280;26080;42.264;24.536;2023-07-20T08:51:40;98631.16;;;33.40;48.89
39793;BME280;26080;42.264;24.536;2023-07-20T08:54:08;98611.00;;;33.47;48.35
39793;BME280;26080;42.264;24.536;2023-07-20T08:56:36;98618.41;;;33.64;51.12
39793;BME280;26080;42.264;24.536;2023-07-20T08:59:02;98613.47;;;33.72;49.70
39793;BME280;26080;42.264;24.536;2023-07-20T09:01:28;98611.19;;;33.81;45.25
39793;BME280;26080;42.264;24.536;2023-07-20T09:03:55;98586.06;;;33.62;45.61
39793;BME280;26080;42.264;24.536;2023-07-20T09:06:21;98613.06;;;33.80;45.72
39793;BME280;26080;42.264;24.536;2023-07-20T09:08:47;98603.53;;;33.78;44.24
39793;BME280;26080;42.264;24.536;2023-07-20T09:11:12;98598.19;;;33.71;46.85
39793;BME280;26080;42.264;24.536;2023-07-20T09:13:41;98588.78;;;33.85;45.98
39793;BME280;26080;42.264;24.536;2023-07-20T09:16:06;98591.81;;;34.01;45.03
39793;BME280;26080;42.264;24.536;2023-07-20T09:18:32;98596.59;;;34.10;48.57
39793;BME280;26080;42.264;24.536;2023-07-20T09:21:03;98586.81;;;34.09;46.12
39793;BME280;26080;42.264;24.536;2023-07-20T09:23:37;98582.78;;;34.12;48.62
39793;BME280;26080;42.264;24.536;2023-07-20T09:26:13;98593.03;;;34.22;47.94
39793;BME280;26080;42.264;24.536;2023-07-20T09:28:49;98578.63;;;34.21;45.36
39793;BME280;26080;42.264;24.536;2023-07-20T09:31:18;98583.19;;;34.32;47.11
39793;BME280;26080;42.264;24.536;2023-07-20T09:33:44;98577.63;;;34.39;44.76
39793;BME280;26080;42.264;24.536;2023-07-20T09:36:09;98577.47;;;34.45;42.79
39793;BME280;26080;42.264;24.536;2023-07-20T09:38:41;98573.88;;;34.57;48.13
39793;BME280;26080;42.264;24.536;2023-07-20T09:41:07;98565.28;;;34.48;45.22
39793;BME280;26080;42.264;24.536;2023-07-20T09:43:34;98564.16;;;34.61;44.61
39793;BME280;26080;42.264;24.536;2023-07-20T09:45:59;98564.16;;;34.61;45.40
39793;BME280;26080;42.264;24.536;2023-07-20T09:48:25;98563.47;;;34.54;44.52
39793;BME280;26080;42.264;24.536;2023-07-20T09:50:57;98542.22;;;34.51;47.99
39793;BME280;26080;42.264;24.536;2023-07-20T09:53:42;98561.63;;;34.71;44.34
39793;BME280;26080;42.264;24.536;2023-07-20T09:56:08;98558.47;;;34.62;42.37
39793;BME280;26080;42.264;24.536;2023-07-20T09:58:36;98557.97;;;34.65;45.11
39793;BME280;26080;42.264;24.536;2023-07-20T10:01:04;98561.03;;;34.69;42.15
39793;BME280;26080;42.264;24.536;2023-07-20T10:03:34;98526.41;;;34.48;40.66
39793;BME280;26080;42.264;24.536;2023-07-20T10:06:05;98540.59;;;34.66;41.35
39793;BME280;26080;42.264;24.536;2023-07-20T10:08:33;98516.34;;;34.48;42.55
39793;BME280;26080;42.264;24.536;2023-07-20T10:11:02;98551.81;;;34.70;41.53
39793;BME280;26080;42.264;24.536;2023-07-20T10:13:29;98552.13;;;34.73;40.90
39793;BME280;26080;42.264;24.536;2023-07-20T10:16:22;98539.69;;;34.78;38.76
39793;BME280;26080;42.264;24.536;2023-07-20T10:19:16;98528.72;;;34.56;40.27
39793;BME280;26080;42.264;24.536;2023-07-20T10:21:47;98521.06;;;34.69;39.84
39793;BME280;26080;42.264;24.536;2023-07-20T10:24:14;98525.94;;;34.84;38.93
39793;BME280;26080;42.264;24.536;2023-07-20T10:26:40;98528.25;;;34.92;40.97
39793;BME280;26080;42.264;24.536;2023-07-20T10:29:06;98509.06;;;34.99;39.78
39793;BME280;26080;42.264;24.536;2023-07-20T10:31:33;98516.88;;;35.12;39.74
39793;BME280;26080;42.264;24.536;2023-07-20T10:34:00;98512.00;;;35.14;39.45
39793;BME280;26080;42.264;24.536;2023-07-20T10:36:27;98508.50;;;35.19;38.92
39793;BME280;26080;42.264;24.536;2023-07-20T10:38:54;98508.34;;;35.25;38.98
39793;BME280;26080;42.264;24.536;2023-07-20T10:41:34;98502.00;;;35.20;36.20
39793;BME280;26080;42.264;24.536;2023-07-20T10:44:07;98498.31;;;34.92;38.25
39793;BME280;26080;42.264;24.536;2023-07-20T10:49:09;98492.97;;;34.97;36.42
39793;BME280;26080;42.264;24.536;2023-07-20T10:51:42;98496.59;;;35.03;37.50
39793;BME280;26080;42.264;24.536;2023-07-20T10:56:49;98484.38;;;35.44;38.89
39793;BME280;26080;42.264;24.536;2023-07-20T11:01:56;98484.13;;;35.68;37.83
39793;BME280;26080;42.264;24.536;2023-07-20T11:04:39;98453.22;;;35.57;39.45
39793;BME280;26080;42.264;24.536;2023-07-20T11:07:05;98455.13;;;35.78;36.40
39793;BME280;26080;42.264;24.536;2023-07-20T11:09:35;98469.53;;;36.01;36.12
39793;BME280;26080;42.264;24.536;2023-07-20T11:12:13;98467.03;;;35.94;37.45
39793;BME280;26080;42.264;24.536;2023-07-20T11:14:44;98465.88;;;35.90;35.94
39793;BME280;26080;42.264;24.536;2023-07-20T11:17:18;98445.72;;;35.91;36.86
39793;BME280;26080;42.264;24.536;2023-07-20T11:19:55;98466.06;;;36.05;38.43
39793;BME280;26080;42.264;24.536;2023-07-20T11:22:21;98465.94;;;35.95;36.09
39793;BME280;26080;42.264;24.536;2023-07-20T11:24:46;98460.25;;;35.97;39.96
39793;BME280;26080;42.264;24.536;2023-07-20T11:27:14;98457.91;;;36.10;37.42
39793;BME280;26080;42.264;24.536;2023-07-20T11:29:39;98441.03;;;36.13;36.01
39793;BME280;26080;42.264;24.536;2023-07-20T11:32:05;98447.84;;;36.38;33.05
39793;BME280;26080;42.264;24.536;2023-07-20T11:34:32;98441.34;;;36.44;34.25
39793;BME280;26080;42.264;24.536;2023-07-20T11:36:58;98433.75;;;36.46;36.49
39793;BME280;26080;42.264;24.536;2023-07-20T11:39:24;98445.88;;;36.65;35.94
39793;BME280;26080;42.264;24.536;2023-07-20T11:41:52;98440.16;;;36.67;32.70
39793;BME280;26080;42.264;24.536;2023-07-20T11:44:19;98451.28;;;36.60;33.59
39793;BME280;26080;42.264;24.536;2023-07-20T11:47:00;98443.44;;;36.69;33.67
39793;BME280;26080;42.264;24.536;2023-07-20T11:49:27;98447.09;;;36.85;32.08
39793;BME280;26080;42.264;24.536;2023-07-20T11:51:52;98444.44;;;36.90;29.77
39793;BME280;26080;42.264;24.536;2023-07-20T11:54:18;98444.13;;;36.86;29.20
39793;BME280;26080;42.264;24.536;2023-07-20T11:56:44;98440.84;;;36.84;30.70
39793;BME280;26080;42.264;24.536;2023-07-20T11:59:10;98423.22;;;36.65;30.65
39793;BME280;26080;42.264;24.536;2023-07-20T12:01:35;98428.94;;;36.63;30.70
39793;BME280;26080;42.264;24.536;2023-07-20T12:04:03;98434.16;;;36.70;31.51
39793;BME280;26080;42.264;24.536;2023-07-20T12:06:29;98428.41;;;36.66;32.33
39793;BME280;26080;42.264;24.536;2023-07-20T12:08:57;98432.56;;;36.74;31.68
39793;BME280;26080;42.264;24.536;2023-07-20T12:13:58;98418.81;;;36.27;32.07
39793;BME280;26080;42.264;24.536;2023-07-20T12:16:27;98414.16;;;36.22;32.65
39793;BME280;26080;42.264;24.536;2023-07-20T12:19:04;98407.66;;;36.28;32.90
39793;BME280;26080;42.264;24.536;2023-07-20T12:21:30;98410.84;;;36.47;32.23
39793;BME280;26080;42.264;24.536;2023-07-20T12:23:57;98415.22;;;36.48;31.71
39793;BME280;26080;42.264;24.536;2023-07-20T12:26:24;98408.97;;;36.53;31.77
39793;BME280;26080;42.264;24.536;2023-07-20T12:28:51;98401.25;;;36.44;32.25
39793;BME280;26080;42.264;24.536;2023-07-20T12:31:17;98397.22;;;36.47;31.56
39793;BME280;26080;42.264;24.536;2023-07-20T12:33:42;98382.16;;;36.44;30.92
39793;BME280;26080;42.264;24.536;2023-07-20T12:36:09;98401.03;;;36.46;31.03
39793;BME280;26080;42.264;24.536;2023-07-20T12:38:36;98386.81;;;36.44;32.24
39793;BME280;26080;42.264;24.536;2023-07-20T12:41:02;98382.06;;;36.66;33.10
39793;BME280;26080;42.264;24.536;2023-07-20T12:43:29;98379.94;;;36.73;30.88
39793;BME280;26080;42.264;24.536;2023-07-20T12:45:55;98372.91;;;36.83;33.20
39793;BME280;26080;42.264;24.536;2023-07-20T12:48:21;98385.59;;;36.67;31.88
39793;BME280;26080;42.264;24.536;2023-07-20T12:50:48;98380.47;;;36.75;33.06
39793;BME280;26080;42.264;24.536;2023-07-20T12:53:14;98384.16;;;36.59;32.03
39793;BME280;26080;42.264;24.536;2023-07-20T12:55:39;98374.94;;;36.65;31.78
39793;BME280;26080;42.264;24.536;2023-07-20T12:58:07;98368.66;;;36.28;31.09
39793;BME280;26080;42.264;24.536;2023-07-20T13:00:33;98378.34;;;36.08;31.96
39793;BME280;26080;42.264;24.536;2023-07-20T13:02:59;98381.00;;;36.03;32.71
39793;BME280;26080;42.264;24.536;2023-07-20T13:05:24;98377.19;;;36.04;33.05
39793;BME280;26080;42.264;24.536;2023-07-20T13:07:50;98383.16;;;36.01;32.36
39793;BME280;26080;42.264;24.536;2023-07-20T13:10:16;98374.78;;;35.81;31.67